Shercock, Ireland
Current Conditions -  °F | °C
As of 11:00 AM on Tuesday 27 Jan 2015 (Local Time) from EIDW Reporting Station
Drizzle Drizzle  
Wind Chill: 37°   Ceiling: 900
Heat Index: 43°   Visibility: 5mi
Dew Point: 41°   Wind: 12mph
Humidity: 93%   Direction: 240°WSW
Pressure: 30.33"   Gusts: NA
Location:  54°N, 6.9°W
Report Text: EIDW 271000Z 24010KT 8000 -DZ BKN009 BKN022 06/05 Q1027 NOSIG
Loading
Personal Weather Stations






























Interactive Weather Map New forecast layout! Learn more

10-Day Weather Forecast

Advertisements
Track Severe Weather on mobile